Time,TemperatureF,DewpointF,PressureIn,WindDirection,WindDirectionDegrees,WindSpeedMPH,WindSpeedGustMPH,Humidity,HourlyPrecipIn,Conditions,Clouds,dailyrainin,SolarRadiationWatts/m^2,SoftwareType,DateUTC
2013-10-26 00:02:00,48.2,37.8,29.94,North,11,1.0,7.0,67,0.00,,,0.00,0.0,meteohub,2013-10-26 05:02:00,
2013-10-26 00:07:00,47.8,37.0,29.95,West,279,1.0,9.0,66,0.00,,,0.00,0.0,meteohub,2013-10-26 05:07:00,
2013-10-26 00:12:00,47.7,36.9,29.95,West,276,4.0,9.0,66,0.00,,,0.00,0.0,meteohub,2013-10-26 05:12:00,
2013-10-26 00:17:00,47.3,36.5,29.95,West,265,4.0,8.0,66,0.00,,,0.00,0.0,meteohub,2013-10-26 05:17:00,
2013-10-26 00:22:00,47.1,35.6,29.96,WNW,291,4.0,8.0,64,0.00,,,0.00,0.0,meteohub,2013-10-26 05:22:00,
2013-10-26 00:27:00,47.1,35.6,29.96,NNW,337,3.0,8.0,64,0.00,,,0.00,0.0,meteohub,2013-10-26 05:27:00,
2013-10-26 00:32:00,46.9,35.1,29.96,WNW,300,4.0,7.0,63,0.00,,,0.00,0.0,meteohub,2013-10-26 05:32:00,
2013-10-26 00:37:00,46.9,34.5,29.96,NW,313,2.0,11.0,62,0.00,,,0.00,0.0,meteohub,2013-10-26 05:37:00,
2013-10-26 00:42:00,46.8,34.9,29.96,NW,323,2.0,11.0,63,0.00,,,0.00,0.0,meteohub,2013-10-26 05:42:00,
2013-10-26 00:48:00,46.6,34.7,29.96,WSW,247,4.0,8.0,63,0.00,,,0.00,0.0,meteohub,2013-10-26 05:48:00,
2013-10-26 00:53:00,46.2,34.7,29.97,NW,306,1.0,10.0,64,0.00,,,0.00,0.0,meteohub,2013-10-26 05:53:00,
2013-10-26 00:58:00,46.0,34.5,29.97,SW,222,3.0,10.0,64,0.00,,,0.00,0.0,meteohub,2013-10-26 05:58:00,
2013-10-26 01:03:00,45.7,34.5,29.97,West,269,1.0,10.0,65,0.00,,,0.00,0.0,meteohub,2013-10-26 06:03:00,
2013-10-26 01:08:00,45.5,34.9,29.98,WSW,248,2.0,8.0,66,0.00,,,0.00,0.0,meteohub,2013-10-26 06:08:00,
2013-10-26 01:13:00,45.3,34.7,29.98,WNW,288,1.0,11.0,66,0.00,,,0.00,0.0,meteohub,2013-10-26 06:13:00,
2013-10-26 01:18:00,44.8,34.9,29.98,WNW,284,1.0,11.0,68,0.00,,,0.00,0.0,meteohub,2013-10-26 06:18:00,
2013-10-26 01:23:00,44.4,34.9,29.99,NW,320,4.0,11.0,69,0.00,,,0.00,0.0,meteohub,2013-10-26 06:23:00,
2013-10-26 01:28:00,44.2,35.1,29.99,NNW,331,1.0,6.0,70,0.00,,,0.00,0.0,meteohub,2013-10-26 06:28:00,
2013-10-26 01:33:00,44.1,34.9,29.99,West,271,3.0,6.0,70,0.00,,,0.00,0.0,meteohub,2013-10-26 06:33:00,
2013-10-26 01:38:00,43.3,33.8,29.99,NW,322,1.0,7.0,69,0.00,,,0.00,0.0,meteohub,2013-10-26 06:38:00,
2013-10-26 01:43:00,43.0,32.4,29.99,NW,313,2.0,7.0,66,0.00,,,0.00,0.0,meteohub,2013-10-26 06:43:00,
2013-10-26 01:48:00,42.4,31.8,29.99,WSW,253,3.0,6.0,66,0.00,,,0.00,0.0,meteohub,2013-10-26 06:48:00,
2013-10-26 01:53:00,42.3,31.3,29.99,West,264,1.0,11.0,65,0.00,,,0.00,0.0,meteohub,2013-10-26 06:53:00,
2013-10-26 01:58:00,42.1,32.0,29.99,West,259,2.0,11.0,67,0.00,,,0.00,0.0,meteohub,2013-10-26 06:58:00,
2013-10-26 02:03:00,41.7,32.0,30.00,WSW,248,1.0,11.0,68,0.00,,,0.00,0.0,meteohub,2013-10-26 07:03:00,
2013-10-26 02:08:00,41.4,32.0,30.00,WNW,284,1.0,6.0,69,0.00,,,0.00,0.0,meteohub,2013-10-26 07:08:00,
2013-10-26 02:13:00,40.8,31.5,30.00,West,262,1.0,7.0,69,0.00,,,0.00,0.0,meteohub,2013-10-26 07:13:00,
2013-10-26 02:18:00,40.5,31.5,30.01,WSW,240,2.0,7.0,70,0.00,,,0.00,0.0,meteohub,2013-10-26 07:18:00,
2013-10-26 02:23:00,40.3,30.9,30.01,West,278,1.0,7.0,69,0.00,,,0.00,0.0,meteohub,2013-10-26 07:23:00,
2013-10-26 02:28:00,40.1,30.7,30.01,WNW,299,2.0,7.0,69,0.00,,,0.00,0.0,meteohub,2013-10-26 07:28:00,
2013-10-26 02:33:00,39.9,30.9,30.01,WNW,298,1.0,12.0,70,0.00,,,0.00,0.0,meteohub,2013-10-26 07:33:00,
2013-10-26 02:38:00,39.7,31.1,30.02,WNW,288,1.0,12.0,71,0.00,,,0.00,0.0,meteohub,2013-10-26 07:38:00,
2013-10-26 02:43:00,39.6,30.9,30.02,West,269,2.0,12.0,71,0.00,,,0.00,0.0,meteohub,2013-10-26 07:43:00,
2013-10-26 02:48:00,39.4,31.1,30.02,WSW,244,2.0,6.0,72,0.00,,,0.00,0.0,meteohub,2013-10-26 07:48:00,
2013-10-26 02:54:00,39.2,31.3,30.03,WNW,298,2.0,6.0,73,0.00,,,0.00,0.0,meteohub,2013-10-26 07:54:00,
2013-10-26 02:59:00,38.8,31.3,30.03,WNW,292,2.0,6.0,74,0.00,,,0.00,0.0,meteohub,2013-10-26 07:59:00,
2013-10-26 03:04:00,38.7,31.1,30.03,West,268,0.0,6.0,74,0.00,,,0.00,0.0,meteohub,2013-10-26 08:04:00,
2013-10-26 03:09:00,38.5,30.9,30.03,WSW,256,3.0,7.0,74,0.00,,,0.00,0.0,meteohub,2013-10-26 08:09:00,
2013-10-26 03:14:00,38.1,30.6,30.04,SW,234,1.0,7.0,74,0.00,,,0.00,0.0,meteohub,2013-10-26 08:14:00,
2013-10-26 03:19:00,37.8,30.2,30.04,West,275,0.0,6.0,74,0.00,,,0.00,0.0,meteohub,2013-10-26 08:19:00,
2013-10-26 03:24:00,37.6,30.0,30.04,West,260,2.0,6.0,74,0.00,,,0.00,0.0,meteohub,2013-10-26 08:24:00,
2013-10-26 03:29:00,37.4,30.2,30.04,West,271,3.0,6.0,75,0.00,,,0.00,0.0,meteohub,2013-10-26 08:29:00,
2013-10-26 03:34:00,37.2,30.0,30.04,WNW,284,2.0,6.0,75,0.00,,,0.00,0.0,meteohub,2013-10-26 08:34:00,
2013-10-26 03:39:00,37.2,30.0,30.04,West,272,3.0,7.0,75,0.00,,,0.00,0.0,meteohub,2013-10-26 08:39:00,
2013-10-26 03:44:00,37.2,30.0,30.04,West,273,2.0,7.0,75,0.00,,,0.00,0.0,meteohub,2013-10-26 08:44:00,
2013-10-26 03:49:00,37.2,30.0,30.04,West,275,3.0,7.0,75,0.00,,,0.00,0.0,meteohub,2013-10-26 08:49:00,
2013-10-26 03:54:00,37.2,30.0,30.05,West,261,4.0,7.0,75,0.00,,,0.00,0.0,meteohub,2013-10-26 08:54:00,
2013-10-26 03:59:00,37.0,29.8,30.05,WNW,292,2.0,6.0,75,0.00,,,0.00,0.0,meteohub,2013-10-26 08:59:00,
2013-10-26 04:04:00,37.0,30.2,30.05,WNW,284,1.0,6.0,76,0.00,,,0.00,0.0,meteohub,2013-10-26 09:04:00,
2013-10-26 04:09:00,36.7,30.2,30.05,WSW,257,2.0,7.0,77,0.00,,,0.00,0.0,meteohub,2013-10-26 09:09:00,
2013-10-26 04:14:00,36.5,30.0,30.05,West,277,1.0,7.0,77,0.00,,,0.00,0.0,meteohub,2013-10-26 09:14:00,
2013-10-26 04:19:00,36.3,29.8,30.06,West,265,3.0,7.0,77,0.00,,,0.00,0.0,meteohub,2013-10-26 09:19:00,
2013-10-26 04:24:00,36.1,30.0,30.06,West,279,3.0,4.0,78,0.00,,,0.00,0.0,meteohub,2013-10-26 09:24:00,
2013-10-26 04:29:00,36.1,30.0,30.06,West,267,3.0,5.0,78,0.00,,,0.00,0.0,meteohub,2013-10-26 09:29:00,
2013-10-26 04:34:00,36.0,29.8,30.06,West,280,3.0,5.0,78,0.00,,,0.00,0.0,meteohub,2013-10-26 09:34:00,
2013-10-26 04:39:00,35.8,29.7,30.07,West,265,3.0,5.0,78,0.00,,,0.00,0.0,meteohub,2013-10-26 09:39:00,
2013-10-26 04:44:00,35.8,29.8,30.07,WNW,285,2.0,5.0,79,0.00,,,0.00,0.0,meteohub,2013-10-26 09:44:00,
2013-10-26 04:49:00,35.8,29.7,30.07,WSW,251,4.0,5.0,78,0.00,,,0.00,0.0,meteohub,2013-10-26 09:49:00,
2013-10-26 04:54:00,36.0,29.8,30.07,West,271,4.0,5.0,78,0.00,,,0.00,0.0,meteohub,2013-10-26 09:54:00,
2013-10-26 04:59:00,35.8,29.7,30.07,West,276,3.0,6.0,78,0.00,,,0.00,0.0,meteohub,2013-10-26 09:59:00,
2013-10-26 05:04:00,36.0,29.8,30.08,WNW,282,4.0,6.0,78,0.00,,,0.00,0.0,meteohub,2013-10-26 10:04:00,
2013-10-26 05:09:00,36.0,29.8,30.08,West,265,2.0,5.0,78,0.00,,,0.00,0.0,meteohub,2013-10-26 10:09:00,
2013-10-26 05:14:00,35.8,29.7,30.08,West,279,1.0,5.0,78,0.00,,,0.00,0.0,meteohub,2013-10-26 10:14:00,
2013-10-26 05:19:00,35.4,29.5,30.08,West,275,0.0,5.0,79,0.00,,,0.00,0.0,meteohub,2013-10-26 10:19:00,
2013-10-26 05:24:00,35.2,29.3,30.08,West,275,1.0,5.0,79,0.00,,,0.00,0.0,meteohub,2013-10-26 10:24:00,
2013-10-26 05:29:00,34.9,29.3,30.09,West,275,2.0,5.0,80,0.00,,,0.00,0.0,meteohub,2013-10-26 10:29:00,
2013-10-26 05:34:00,34.9,29.3,30.09,West,279,0.0,3.0,80,0.00,,,0.00,0.0,meteohub,2013-10-26 10:34:00,
2013-10-26 05:39:00,34.9,29.3,30.09,West,280,1.0,4.0,80,0.00,,,0.00,0.0,meteohub,2013-10-26 10:39:00,
2013-10-26 05:44:00,35.1,29.5,30.09,West,274,3.0,4.0,80,0.00,,,0.00,0.0,meteohub,2013-10-26 10:44:00,
2013-10-26 05:49:00,35.2,29.3,30.10,West,269,1.0,4.0,79,0.00,,,0.00,0.0,meteohub,2013-10-26 10:49:00,
2013-10-26 05:54:00,35.6,29.7,30.10,West,273,0.0,4.0,79,0.00,,,0.00,0.0,meteohub,2013-10-26 10:54:00,
2013-10-26 05:59:00,35.8,29.8,30.10,WNW,286,2.0,4.0,79,0.00,,,0.00,0.0,meteohub,2013-10-26 10:59:00,
2013-10-26 06:04:00,35.8,29.8,30.10,NW,308,0.0,5.0,79,0.00,,,0.00,0.0,meteohub,2013-10-26 11:04:00,
2013-10-26 06:10:00,35.6,29.7,30.10,West,276,2.0,6.0,79,0.00,,,0.00,0.0,meteohub,2013-10-26 11:10:00,
2013-10-26 06:15:00,35.8,29.8,30.11,West,271,0.0,6.0,79,0.00,,,0.00,0.0,meteohub,2013-10-26 11:15:00,
2013-10-26 06:20:00,35.6,30.0,30.11,West,261,1.0,6.0,80,0.00,,,0.00,0.0,meteohub,2013-10-26 11:20:00,
2013-10-26 06:25:00,35.6,30.0,30.11,West,279,2.0,4.0,80,0.00,,,0.00,0.0,meteohub,2013-10-26 11:25:00,
2013-10-26 06:30:00,35.8,30.2,30.11,West,263,1.0,4.0,80,0.00,,,0.00,0.0,meteohub,2013-10-26 11:30:00,
2013-10-26 06:35:00,35.8,30.2,30.11,WNW,284,1.0,4.0,80,0.00,,,0.00,0.0,meteohub,2013-10-26 11:35:00,
2013-10-26 06:40:00,36.0,30.4,30.11,West,279,2.0,5.0,80,0.00,,,0.00,0.0,meteohub,2013-10-26 11:40:00,
2013-10-26 06:45:00,36.1,30.6,30.11,West,266,1.0,5.0,80,0.00,,,0.00,0.0,meteohub,2013-10-26 11:45:00,
2013-10-26 06:50:00,36.3,30.7,30.11,West,265,2.0,5.0,80,0.00,,,0.00,0.0,meteohub,2013-10-26 11:50:00,
2013-10-26 06:55:00,36.7,30.7,30.12,West,267,4.0,5.0,79,0.00,,,0.00,0.0,meteohub,2013-10-26 11:55:00,
2013-10-26 07:00:00,36.9,30.9,30.12,West,265,3.0,6.0,79,0.00,,,0.00,0.0,meteohub,2013-10-26 12:00:00,
2013-10-26 07:05:00,37.0,30.7,30.12,West,263,5.0,8.0,78,0.00,,,0.00,0.0,meteohub,2013-10-26 12:05:00,
2013-10-26 07:10:00,37.0,30.7,30.12,WSW,254,4.0,8.0,78,0.00,,,0.00,0.0,meteohub,2013-10-26 12:10:00,
2013-10-26 07:15:00,37.0,30.7,30.12,West,271,4.0,7.0,78,0.00,,,0.00,0.0,meteohub,2013-10-26 12:15:00,
2013-10-26 07:20:00,36.9,30.6,30.12,West,271,1.0,7.0,78,0.00,,,0.00,0.0,meteohub,2013-10-26 12:20:00,
2013-10-26 07:25:00,36.9,30.6,30.12,West,261,4.0,6.0,78,0.00,,,0.00,0.0,meteohub,2013-10-26 12:25:00,
2013-10-26 07:30:00,36.7,30.2,30.12,West,274,3.0,6.0,77,0.00,,,0.00,0.0,meteohub,2013-10-26 12:30:00,
2013-10-26 07:35:00,36.7,30.2,30.13,West,275,3.0,6.0,77,0.00,,,0.00,0.0,meteohub,2013-10-26 12:35:00,
2013-10-26 07:40:00,36.3,29.8,30.13,West,274,3.0,6.0,77,0.00,,,0.00,0.0,meteohub,2013-10-26 12:40:00,
2013-10-26 07:45:00,36.1,29.7,30.13,West,263,2.0,7.0,77,0.00,,,0.00,0.0,meteohub,2013-10-26 12:45:00,
2013-10-26 07:50:00,36.0,29.8,30.13,West,270,2.0,7.0,78,0.00,,,0.00,7.0,meteohub,2013-10-26 12:50:00,
2013-10-26 07:55:00,35.8,29.7,30.13,West,273,2.0,7.0,78,0.00,,,0.00,7.0,meteohub,2013-10-26 12:55:00,
2013-10-26 08:00:00,35.6,29.5,30.14,West,267,2.0,6.0,78,0.00,,,0.00,7.0,meteohub,2013-10-26 13:00:00,
2013-10-26 08:05:00,35.4,29.3,30.14,NW,306,1.0,7.0,78,0.00,,,0.00,9.0,meteohub,2013-10-26 13:05:00,
2013-10-26 08:10:00,35.2,29.1,30.14,West,273,3.0,7.0,78,0.00,,,0.00,9.0,meteohub,2013-10-26 13:10:00,
2013-10-26 08:15:00,35.2,29.1,30.14,WSW,240,5.0,7.0,78,0.00,,,0.00,11.0,meteohub,2013-10-26 13:15:00,
2013-10-26 08:21:00,35.1,28.9,30.15,West,271,4.0,6.0,78,0.00,,,0.00,11.0,meteohub,2013-10-26 13:21:00,
2013-10-26 08:25:00,35.1,28.9,30.15,West,276,3.0,6.0,78,0.00,,,0.00,11.0,meteohub,2013-10-26 13:25:00,
2013-10-26 08:31:00,34.9,29.1,30.15,West,273,3.0,6.0,79,0.00,,,0.00,12.0,meteohub,2013-10-26 13:31:00,
2013-10-26 08:36:00,34.9,28.8,30.15,West,279,2.0,6.0,78,0.00,,,0.00,12.0,meteohub,2013-10-26 13:36:00,
2013-10-26 08:41:00,34.9,29.1,30.15,West,266,4.0,7.0,79,0.00,,,0.00,14.0,meteohub,2013-10-26 13:41:00,
2013-10-26 08:46:00,34.9,28.8,30.16,NNW,342,2.0,7.0,78,0.00,,,0.00,16.0,meteohub,2013-10-26 13:46:00,
2013-10-26 08:51:00,35.1,28.9,30.16,West,267,3.0,7.0,78,0.00,,,0.00,18.0,meteohub,2013-10-26 13:51:00,
2013-10-26 08:56:00,35.1,28.9,30.16,SW,235,2.0,6.0,78,0.00,,,0.00,19.0,meteohub,2013-10-26 13:56:00,
2013-10-26 09:01:00,35.2,29.1,30.17,West,275,1.0,6.0,78,0.00,,,0.00,19.0,meteohub,2013-10-26 14:01:00,
2013-10-26 09:06:00,35.4,29.3,30.17,WNW,282,4.0,7.0,78,0.00,,,0.00,21.0,meteohub,2013-10-26 14:06:00,
2013-10-26 09:11:00,35.6,29.1,30.17,West,262,3.0,8.0,77,0.00,,,0.00,25.0,meteohub,2013-10-26 14:11:00,
2013-10-26 09:16:00,35.8,29.3,30.17,West,262,5.0,8.0,77,0.00,,,0.00,25.0,meteohub,2013-10-26 14:16:00,
2013-10-26 09:21:00,36.0,29.5,30.17,WNW,286,3.0,8.0,77,0.00,,,0.00,26.0,meteohub,2013-10-26 14:21:00,
2013-10-26 09:26:00,36.1,29.7,30.17,West,279,3.0,7.0,77,0.00,,,0.00,26.0,meteohub,2013-10-26 14:26:00,
2013-10-26 09:31:00,36.3,29.5,30.17,NNW,338,2.0,7.0,76,0.00,,,0.00,28.0,meteohub,2013-10-26 14:31:00,
2013-10-26 09:36:00,36.7,29.5,30.17,West,269,5.0,9.0,75,0.00,,,0.00,30.0,meteohub,2013-10-26 14:36:00,
2013-10-26 09:41:00,37.0,29.5,30.18,West,271,5.0,9.0,74,0.00,,,0.00,30.0,meteohub,2013-10-26 14:41:00,
2013-10-26 09:46:00,37.6,29.3,30.18,SW,225,3.0,9.0,72,0.00,,,0.00,35.0,meteohub,2013-10-26 14:46:00,
2013-10-26 09:51:00,37.8,29.1,30.18,WNW,288,2.0,8.0,71,0.00,,,0.00,32.0,meteohub,2013-10-26 14:51:00,
2013-10-26 09:56:00,37.9,29.3,30.18,WSW,243,4.0,8.0,71,0.00,,,0.00,35.0,meteohub,2013-10-26 14:56:00,
2013-10-26 10:01:00,38.3,29.7,30.18,West,259,3.0,9.0,71,0.00,,,0.00,33.0,meteohub,2013-10-26 15:01:00,
2013-10-26 10:06:00,38.5,29.5,30.17,West,270,5.0,10.0,70,0.00,,,0.00,33.0,meteohub,2013-10-26 15:06:00,
2013-10-26 10:11:00,38.7,29.7,30.17,SW,227,3.0,10.0,70,0.00,,,0.00,39.0,meteohub,2013-10-26 15:11:00,
2013-10-26 10:17:00,38.8,29.8,30.18,WNW,286,4.0,10.0,70,0.00,,,0.00,35.0,meteohub,2013-10-26 15:17:00,
2013-10-26 10:22:00,39.2,29.8,30.18,West,271,5.0,7.0,69,0.00,,,0.00,35.0,meteohub,2013-10-26 15:22:00,
2013-10-26 10:27:00,39.4,29.7,30.18,NW,323,3.0,7.0,68,0.00,,,0.00,35.0,meteohub,2013-10-26 15:27:00,
2013-10-26 10:32:00,39.6,29.5,30.18,WNW,288,3.0,10.0,67,0.00,,,0.00,42.0,meteohub,2013-10-26 15:32:00,
2013-10-26 10:37:00,39.7,29.7,30.18,West,273,4.0,10.0,67,0.00,,,0.00,58.0,meteohub,2013-10-26 15:37:00,
2013-10-26 10:42:00,40.3,29.8,30.19,ENE,71,5.0,10.0,66,0.00,,,0.00,46.0,meteohub,2013-10-26 15:42:00,
2013-10-26 10:47:00,40.6,29.8,30.19,WNW,301,3.0,10.0,65,0.00,,,0.00,49.0,meteohub,2013-10-26 15:47:00,
2013-10-26 10:52:00,40.8,29.7,30.19,NNE,26,2.0,10.0,64,0.00,,,0.00,51.0,meteohub,2013-10-26 15:52:00,
2013-10-26 10:57:00,41.2,29.5,30.19,NNW,333,3.0,10.0,63,0.00,,,0.00,72.0,meteohub,2013-10-26 15:57:00,
2013-10-26 11:02:00,41.2,30.0,30.19,West,261,6.0,11.0,64,0.00,,,0.00,49.0,meteohub,2013-10-26 16:02:00,
2013-10-26 11:07:00,41.4,30.0,30.20,North,0,3.0,12.0,64,0.00,,,0.00,135.0,meteohub,2013-10-26 16:07:00,
2013-10-26 11:12:00,41.5,29.8,30.20,NW,306,5.0,12.0,63,0.00,,,0.00,257.0,meteohub,2013-10-26 16:12:00,
2013-10-26 11:17:00,41.5,29.5,30.19,WSW,255,4.0,12.0,62,0.00,,,0.00,258.0,meteohub,2013-10-26 16:17:00,
2013-10-26 11:22:00,41.7,30.0,30.19,West,260,1.0,10.0,63,0.00,,,0.00,213.0,meteohub,2013-10-26 16:22:00,
2013-10-26 11:27:00,42.1,30.0,30.19,WSW,251,5.0,10.0,62,0.00,,,0.00,251.0,meteohub,2013-10-26 16:27:00,
2013-10-26 11:32:00,42.3,29.8,30.19,North,355,1.0,10.0,61,0.00,,,0.00,200.0,meteohub,2013-10-26 16:32:00,
2013-10-26 11:37:00,42.3,29.8,30.20,NNW,347,3.0,12.0,61,0.00,,,0.00,107.0,meteohub,2013-10-26 16:37:00,
2013-10-26 11:42:00,42.6,29.7,30.21,NW,317,1.0,12.0,60,0.00,,,0.00,107.0,meteohub,2013-10-26 16:42:00,
2013-10-26 11:47:00,43.0,30.0,30.21,WSW,254,4.0,12.0,60,0.00,,,0.00,121.0,meteohub,2013-10-26 16:47:00,
2013-10-26 11:52:00,43.0,30.0,30.20,WNW,283,3.0,11.0,60,0.00,,,0.00,146.0,meteohub,2013-10-26 16:52:00,
2013-10-26 11:57:00,43.5,30.2,30.20,West,269,4.0,11.0,59,0.00,,,0.00,93.0,meteohub,2013-10-26 16:57:00,
2013-10-26 12:02:00,43.0,30.0,30.20,WNW,288,4.0,11.0,60,0.00,,,0.00,102.0,meteohub,2013-10-26 17:02:00,
2013-10-26 12:07:00,43.2,30.2,30.19,NW,319,3.0,13.0,60,0.00,,,0.00,366.0,meteohub,2013-10-26 17:07:00,
2013-10-26 12:12:00,43.3,30.0,30.20,West,269,5.0,13.0,59,0.00,,,0.00,376.0,meteohub,2013-10-26 17:12:00,
2013-10-26 12:17:00,43.9,30.6,30.20,WNW,286,5.0,13.0,59,0.00,,,0.00,501.0,meteohub,2013-10-26 17:17:00,
2013-10-26 12:22:00,43.3,30.0,30.21,NNE,22,5.0,12.0,59,0.00,,,0.00,225.0,meteohub,2013-10-26 17:22:00,
2013-10-26 12:27:00,44.1,31.5,30.20,West,274,3.0,11.0,61,0.00,,,0.00,478.0,meteohub,2013-10-26 17:27:00,
2013-10-26 12:31:00,43.9,30.6,30.20,West,270,5.0,11.0,59,0.00,,,0.00,111.0,meteohub,2013-10-26 17:31:00,
2013-10-26 12:37:00,43.5,30.9,30.21,NW,316,5.0,11.0,61,0.00,,,0.00,501.0,meteohub,2013-10-26 17:37:00,
2013-10-26 12:42:00,43.5,30.6,30.20,North,5,2.0,9.0,60,0.00,,,0.00,461.0,meteohub,2013-10-26 17:42:00,
2013-10-26 12:47:00,44.1,30.2,30.20,NW,306,2.0,15.0,58,0.00,,,0.00,510.0,meteohub,2013-10-26 17:47:00,
2013-10-26 12:52:00,44.4,30.2,30.20,West,276,7.0,15.0,57,0.00,,,0.00,420.0,meteohub,2013-10-26 17:52:00,
2013-10-26 12:57:00,44.4,30.2,30.20,West,271,3.0,15.0,57,0.00,,,0.00,468.0,meteohub,2013-10-26 17:57:00,
2013-10-26 13:02:00,44.6,29.8,30.19,West,262,7.0,12.0,56,0.00,,,0.00,436.0,meteohub,2013-10-26 18:02:00,
2013-10-26 13:07:00,44.4,30.2,30.19,West,271,8.0,12.0,57,0.00,,,0.00,443.0,meteohub,2013-10-26 18:07:00,
2013-10-26 13:12:00,44.8,30.6,30.19,NW,318,1.0,11.0,57,0.00,,,0.00,452.0,meteohub,2013-10-26 18:12:00,
2013-10-26 13:17:00,44.8,29.7,30.20,WSW,254,11.0,11.0,55,0.00,,,0.00,492.0,meteohub,2013-10-26 18:17:00,
2013-10-26 13:22:00,44.4,30.2,30.19,WSW,245,4.0,12.0,57,0.00,,,0.00,462.0,meteohub,2013-10-26 18:22:00,
2013-10-26 13:27:00,44.4,30.2,30.20,West,267,4.0,12.0,57,0.00,,,0.00,473.0,meteohub,2013-10-26 18:27:00,
2013-10-26 13:32:00,45.0,30.6,30.20,West,273,5.0,12.0,57,0.00,,,0.00,343.0,meteohub,2013-10-26 18:32:00,
2013-10-26 13:37:00,45.0,29.8,30.19,West,279,5.0,11.0,55,0.00,,,0.00,169.0,meteohub,2013-10-26 18:37:00,
2013-10-26 13:42:00,44.2,30.4,30.19,WSW,257,5.0,13.0,58,0.00,,,0.00,494.0,meteohub,2013-10-26 18:42:00,
2013-10-26 13:47:00,45.0,30.2,30.19,West,274,5.0,13.0,56,0.00,,,0.00,244.0,meteohub,2013-10-26 18:47:00,
2013-10-26 13:52:00,45.1,31.6,30.19,West,274,4.0,13.0,59,0.00,,,0.00,221.0,meteohub,2013-10-26 18:52:00,
2013-10-26 13:57:00,44.6,30.4,30.19,WNW,299,2.0,9.0,57,0.00,,,0.00,144.0,meteohub,2013-10-26 18:57:00,
2013-10-26 14:02:00,43.9,29.7,30.19,West,269,5.0,9.0,57,0.00,,,0.00,109.0,meteohub,2013-10-26 19:02:00,
2013-10-26 14:07:00,43.7,30.4,30.19,West,264,6.0,9.0,59,0.00,,,0.00,387.0,meteohub,2013-10-26 19:07:00,
2013-10-26 14:12:00,45.0,30.6,30.19,WNW,294,2.0,9.0,57,0.00,,,0.00,497.0,meteohub,2013-10-26 19:12:00,
2013-10-26 14:17:00,45.1,30.4,30.19,WSW,249,7.0,9.0,56,0.00,,,0.00,420.0,meteohub,2013-10-26 19:17:00,
2013-10-26 14:22:00,45.0,30.6,30.19,NW,319,4.0,10.0,57,0.00,,,0.00,279.0,meteohub,2013-10-26 19:22:00,
2013-10-26 14:27:00,44.2,30.0,30.19,West,275,3.0,11.0,57,0.00,,,0.00,427.0,meteohub,2013-10-26 19:27:00,
2013-10-26 14:32:00,44.8,30.0,30.19,NNW,329,4.0,11.0,56,0.00,,,0.00,316.0,meteohub,2013-10-26 19:32:00,
2013-10-26 14:37:00,45.1,31.3,30.19,West,265,8.0,11.0,58,0.00,,,0.00,480.0,meteohub,2013-10-26 19:37:00,
2013-10-26 14:42:00,45.7,31.3,30.19,West,261,5.0,11.0,57,0.00,,,0.00,364.0,meteohub,2013-10-26 19:42:00,
2013-10-26 14:47:00,45.1,30.0,30.19,WSW,248,7.0,11.0,55,0.00,,,0.00,436.0,meteohub,2013-10-26 19:47:00,
2013-10-26 14:52:00,45.1,30.4,30.19,West,281,5.0,11.0,56,0.00,,,0.00,390.0,meteohub,2013-10-26 19:52:00,
2013-10-26 14:57:00,45.1,30.0,30.19,West,275,8.0,11.0,55,0.00,,,0.00,506.0,meteohub,2013-10-26 19:57:00,
2013-10-26 15:02:00,45.3,30.9,30.19,West,270,5.0,11.0,57,0.00,,,0.00,508.0,meteohub,2013-10-26 20:02:00,
2013-10-26 15:07:00,45.9,32.0,30.19,WNW,290,4.0,11.0,58,0.00,,,0.00,517.0,meteohub,2013-10-26 20:07:00,
2013-10-26 15:12:00,46.2,31.8,30.19,West,273,1.0,11.0,57,0.00,,,0.00,364.0,meteohub,2013-10-26 20:12:00,
2013-10-26 15:17:00,45.3,30.0,30.19,West,268,3.0,9.0,55,0.00,,,0.00,308.0,meteohub,2013-10-26 20:17:00,
2013-10-26 15:22:00,45.1,30.4,30.18,West,259,5.0,9.0,56,0.00,,,0.00,362.0,meteohub,2013-10-26 20:22:00,
2013-10-26 15:27:00,45.1,30.7,30.18,NW,305,4.0,11.0,57,0.00,,,0.00,323.0,meteohub,2013-10-26 20:27:00,
2013-10-26 15:32:00,45.0,30.2,30.18,West,268,3.0,11.0,56,0.00,,,0.00,316.0,meteohub,2013-10-26 20:32:00,
2013-10-26 15:37:00,44.4,29.7,30.18,WNW,287,6.0,11.0,56,0.00,,,0.00,193.0,meteohub,2013-10-26 20:37:00,
2013-10-26 15:42:00,44.6,30.4,30.18,West,260,4.0,9.0,57,0.00,,,0.00,151.0,meteohub,2013-10-26 20:42:00,
2013-10-26 15:47:00,45.0,30.6,30.18,WSW,257,2.0,8.0,57,0.00,,,0.00,413.0,meteohub,2013-10-26 20:47:00,
2013-10-26 15:52:00,45.7,30.9,30.18,WNW,284,4.0,10.0,56,0.00,,,0.00,190.0,meteohub,2013-10-26 20:52:00,
2013-10-26 15:57:00,45.1,30.4,30.18,WNW,286,4.0,10.0,56,0.00,,,0.00,125.0,meteohub,2013-10-26 20:57:00,
2013-10-26 16:02:00,45.1,30.7,30.18,NNW,343,1.0,9.0,57,0.00,,,0.00,211.0,meteohub,2013-10-26 21:02:00,
2013-10-26 16:07:00,44.8,30.6,30.17,NNE,12,2.0,9.0,57,0.00,,,0.00,60.0,meteohub,2013-10-26 21:07:00,
2013-10-26 16:12:00,44.2,30.4,30.17,WSW,257,2.0,9.0,58,0.00,,,0.00,53.0,meteohub,2013-10-26 21:12:00,
2013-10-26 16:17:00,44.2,30.4,30.17,West,268,3.0,9.0,58,0.00,,,0.00,65.0,meteohub,2013-10-26 21:17:00,
2013-10-26 16:22:00,44.2,30.7,30.17,WSW,250,3.0,7.0,59,0.00,,,0.00,46.0,meteohub,2013-10-26 21:22:00,
2013-10-26 16:27:00,44.2,30.4,30.17,West,270,4.0,7.0,58,0.00,,,0.00,40.0,meteohub,2013-10-26 21:27:00,
2013-10-26 16:32:00,43.9,29.7,30.17,WSW,254,3.0,8.0,57,0.00,,,0.00,37.0,meteohub,2013-10-26 21:32:00,
2013-10-26 16:37:00,43.9,30.0,30.17,West,270,2.0,8.0,58,0.00,,,0.00,39.0,meteohub,2013-10-26 21:37:00,
2013-10-26 16:42:00,43.9,30.0,30.17,North,355,1.0,8.0,58,0.00,,,0.00,39.0,meteohub,2013-10-26 21:42:00,
2013-10-26 16:47:00,43.7,29.8,30.17,North,350,4.0,6.0,58,0.00,,,0.00,44.0,meteohub,2013-10-26 21:47:00,
2013-10-26 16:52:00,43.9,30.0,30.17,NNE,13,0.0,6.0,58,0.00,,,0.00,42.0,meteohub,2013-10-26 21:52:00,
2013-10-26 16:57:00,43.9,30.9,30.17,NW,320,1.0,6.0,60,0.00,,,0.00,42.0,meteohub,2013-10-26 21:57:00,
2013-10-26 17:02:00,43.9,30.6,30.17,NE,36,1.0,5.0,59,0.00,,,0.00,35.0,meteohub,2013-10-26 22:02:00,
2013-10-26 17:07:00,43.5,30.2,30.17,WSW,257,2.0,5.0,59,0.00,,,0.00,32.0,meteohub,2013-10-26 22:07:00,
2013-10-26 17:12:00,43.3,30.0,30.17,West,277,1.0,5.0,59,0.00,,,0.00,30.0,meteohub,2013-10-26 22:12:00,
2013-10-26 17:17:00,43.3,30.0,30.17,West,265,3.0,4.0,59,0.00,,,0.00,33.0,meteohub,2013-10-26 22:17:00,
2013-10-26 17:22:00,43.3,29.5,30.17,West,263,3.0,7.0,58,0.00,,,0.00,21.0,meteohub,2013-10-26 22:22:00,
2013-10-26 17:27:00,43.2,29.8,30.17,West,270,2.0,7.0,59,0.00,,,0.00,25.0,meteohub,2013-10-26 22:27:00,
2013-10-26 17:32:00,43.0,29.7,30.17,West,261,2.0,7.0,59,0.00,,,0.00,26.0,meteohub,2013-10-26 22:32:00,
2013-10-26 17:37:00,42.8,29.8,30.16,West,271,4.0,5.0,60,0.00,,,0.00,19.0,meteohub,2013-10-26 22:37:00,
2013-10-26 17:42:00,42.6,29.7,30.16,WSW,247,2.0,6.0,60,0.00,,,0.00,19.0,meteohub,2013-10-26 22:42:00,
2013-10-26 17:47:00,42.3,30.2,30.16,West,264,1.0,6.0,62,0.00,,,0.00,18.0,meteohub,2013-10-26 22:47:00,
2013-10-26 17:52:00,42.1,29.7,30.16,West,275,2.0,6.0,61,0.00,,,0.00,14.0,meteohub,2013-10-26 22:52:00,
2013-10-26 17:57:00,42.1,30.0,30.16,West,263,1.0,5.0,62,0.00,,,0.00,11.0,meteohub,2013-10-26 22:57:00,
2013-10-26 18:02:00,41.5,29.8,30.16,West,271,2.0,5.0,63,0.00,,,0.00,9.0,meteohub,2013-10-26 23:02:00,
2013-10-26 18:07:00,41.4,29.7,30.16,West,279,1.0,5.0,63,0.00,,,0.00,9.0,meteohub,2013-10-26 23:07:00,
2013-10-26 18:12:00,40.8,30.0,30.16,West,279,0.0,5.0,65,0.00,,,0.00,5.0,meteohub,2013-10-26 23:12:00,
2013-10-26 18:17:00,40.5,29.7,30.15,West,279,0.0,5.0,65,0.00,,,0.00,5.0,meteohub,2013-10-26 23:17:00,
2013-10-26 18:22:00,40.3,29.5,30.15,West,279,0.0,3.0,65,0.00,,,0.00,5.0,meteohub,2013-10-26 23:22:00,
2013-10-26 18:27:00,39.6,29.1,30.15,West,279,0.0,1.0,66,0.00,,,0.00,7.0,meteohub,2013-10-26 23:27:00,
2013-10-26 18:32:00,39.4,28.9,30.15,West,279,0.0,1.0,66,0.00,,,0.00,0.0,meteohub,2013-10-26 23:32:00,
2013-10-26 18:37:00,39.0,28.9,30.15,West,279,0.0,0.0,67,0.00,,,0.00,0.0,meteohub,2013-10-26 23:37:00,
2013-10-26 18:42:00,38.7,29.7,30.15,West,279,0.0,0.0,70,0.00,,,0.00,0.0,meteohub,2013-10-26 23:42:00,
2013-10-26 18:47:00,38.5,29.5,30.15,West,279,0.0,0.0,70,0.00,,,0.00,0.0,meteohub,2013-10-26 23:47:00,
2013-10-26 18:52:00,38.1,29.5,30.15,West,279,0.0,0.0,71,0.00,,,0.00,0.0,meteohub,2013-10-26 23:52:00,
2013-10-26 18:57:00,37.9,29.3,30.15,West,279,0.0,0.0,71,0.00,,,0.00,0.0,meteohub,2013-10-26 23:57:00,
2013-10-26 19:02:00,37.6,29.3,30.15,West,279,0.0,0.0,72,0.00,,,0.00,0.0,meteohub,2013-10-27 00:02:00,
2013-10-26 19:07:00,37.2,29.1,30.15,West,279,0.0,0.0,72,0.00,,,0.00,0.0,meteohub,2013-10-27 00:07:00,
2013-10-26 19:12:00,37.0,29.5,30.16,West,279,0.0,0.0,74,0.00,,,0.00,0.0,meteohub,2013-10-27 00:12:00,
2013-10-26 19:17:00,36.9,29.3,30.16,West,279,0.0,0.0,74,0.00,,,0.00,0.0,meteohub,2013-10-27 00:17:00,
2013-10-26 19:22:00,36.7,29.5,30.16,West,279,0.0,0.0,75,0.00,,,0.00,0.0,meteohub,2013-10-27 00:22:00,
2013-10-26 19:27:00,36.5,29.3,30.16,West,279,0.0,0.0,75,0.00,,,0.00,0.0,meteohub,2013-10-27 00:27:00,
2013-10-26 19:32:00,36.7,28.8,30.17,West,279,0.0,0.0,73,0.00,,,0.00,0.0,meteohub,2013-10-27 00:32:00,
2013-10-26 19:37:00,36.5,28.9,30.17,West,279,0.0,0.0,74,0.00,,,0.00,0.0,meteohub,2013-10-27 00:37:00,
2013-10-26 19:42:00,36.1,28.9,30.17,West,279,0.0,0.0,75,0.00,,,0.00,0.0,meteohub,2013-10-27 00:42:00,
2013-10-26 19:47:00,36.0,29.1,30.17,West,279,0.0,0.0,76,0.00,,,0.00,0.0,meteohub,2013-10-27 00:47:00,
2013-10-26 19:52:00,35.8,28.9,30.16,West,279,0.0,0.0,76,0.00,,,0.00,0.0,meteohub,2013-10-27 00:52:00,
2013-10-26 19:57:00,35.8,28.9,30.16,West,279,0.0,0.0,76,0.00,,,0.00,0.0,meteohub,2013-10-27 00:57:00,
2013-10-26 20:02:00,35.8,29.3,30.15,West,279,0.0,0.0,77,0.00,,,0.00,0.0,meteohub,2013-10-27 01:02:00,
2013-10-26 20:07:00,35.8,28.9,30.15,West,279,0.0,0.0,76,0.00,,,0.00,0.0,meteohub,2013-10-27 01:07:00,
2013-10-26 20:12:00,35.6,29.1,30.14,West,279,0.0,0.0,77,0.00,,,0.00,0.0,meteohub,2013-10-27 01:12:00,
2013-10-26 20:17:00,35.4,29.3,30.14,West,279,0.0,0.0,78,0.00,,,0.00,0.0,meteohub,2013-10-27 01:17:00,
2013-10-26 20:22:00,35.2,29.1,30.14,West,279,0.0,0.0,78,0.00,,,0.00,0.0,meteohub,2013-10-27 01:22:00,
2013-10-26 20:27:00,35.2,29.1,30.14,West,279,0.0,0.0,78,0.00,,,0.00,0.0,meteohub,2013-10-27 01:27:00,
2013-10-26 20:32:00,35.2,29.3,30.13,West,279,0.0,0.0,79,0.00,,,0.00,0.0,meteohub,2013-10-27 01:32:00,
2013-10-26 20:37:00,35.1,29.1,30.13,West,279,0.0,0.0,79,0.00,,,0.00,0.0,meteohub,2013-10-27 01:37:00,
2013-10-26 20:42:00,34.9,29.3,30.13,West,279,0.0,0.0,80,0.00,,,0.00,0.0,meteohub,2013-10-27 01:42:00,
2013-10-26 20:47:00,34.9,29.1,30.13,West,279,0.0,0.0,79,0.00,,,0.00,0.0,meteohub,2013-10-27 01:47:00,
2013-10-26 20:52:00,34.9,29.1,30.13,West,279,0.0,0.0,79,0.00,,,0.00,0.0,meteohub,2013-10-27 01:52:00,
2013-10-26 20:57:00,34.5,28.8,30.13,West,279,0.0,0.0,79,0.00,,,0.00,0.0,meteohub,2013-10-27 01:57:00,
2013-10-26 21:02:00,34.0,29.1,30.13,West,279,0.0,0.0,82,0.00,,,0.00,0.0,meteohub,2013-10-27 02:02:00,
2013-10-26 21:07:00,33.6,28.8,30.13,West,279,0.0,0.0,82,0.00,,,0.00,0.0,meteohub,2013-10-27 02:07:00,
2013-10-26 21:12:00,33.8,28.9,30.12,West,279,0.0,0.0,82,0.00,,,0.00,0.0,meteohub,2013-10-27 02:12:00,
2013-10-26 21:17:00,34.0,28.8,30.12,West,279,0.0,0.0,81,0.00,,,0.00,0.0,meteohub,2013-10-27 02:17:00,
2013-10-26 21:22:00,34.0,28.8,30.12,West,279,0.0,0.0,81,0.00,,,0.00,0.0,meteohub,2013-10-27 02:22:00,
2013-10-26 21:27:00,34.0,28.8,30.11,West,279,0.0,0.0,81,0.00,,,0.00,0.0,meteohub,2013-10-27 02:27:00,
2013-10-26 21:32:00,33.6,28.8,30.11,West,279,0.0,0.0,82,0.00,,,0.00,0.0,meteohub,2013-10-27 02:32:00,
2013-10-26 21:37:00,33.4,28.6,30.11,West,279,0.0,0.0,82,0.00,,,0.00,0.0,meteohub,2013-10-27 02:37:00,
2013-10-26 21:42:00,33.4,28.6,30.11,West,279,0.0,0.0,82,0.00,,,0.00,0.0,meteohub,2013-10-27 02:42:00,
2013-10-26 21:47:00,32.7,28.2,30.12,West,279,0.0,0.0,83,0.00,,,0.00,0.0,meteohub,2013-10-27 02:47:00,
2013-10-26 21:52:00,32.5,28.2,30.12,West,279,0.0,0.0,84,0.00,,,0.00,0.0,meteohub,2013-10-27 02:52:00,
2013-10-26 21:57:00,32.7,28.2,30.11,West,279,0.0,0.0,83,0.00,,,0.00,0.0,meteohub,2013-10-27 02:57:00,
2013-10-26 22:02:00,32.7,28.2,30.11,West,279,0.0,0.0,83,0.00,,,0.00,0.0,meteohub,2013-10-27 03:02:00,
2013-10-26 22:07:00,32.7,27.9,30.11,West,279,0.0,0.0,82,0.00,,,0.00,0.0,meteohub,2013-10-27 03:07:00,
2013-10-26 22:12:00,32.5,27.7,30.11,West,279,0.0,0.0,82,0.00,,,0.00,0.0,meteohub,2013-10-27 03:12:00,
2013-10-26 22:17:00,32.4,27.9,30.11,West,279,0.0,0.0,83,0.00,,,0.00,0.0,meteohub,2013-10-27 03:17:00,
2013-10-26 22:22:00,32.2,27.9,30.11,West,279,0.0,0.0,84,0.00,,,0.00,0.0,meteohub,2013-10-27 03:22:00,
2013-10-26 22:27:00,31.8,27.5,30.11,West,279,0.0,0.0,84,0.00,,,0.00,0.0,meteohub,2013-10-27 03:27:00,
2013-10-26 22:32:00,31.6,27.7,30.11,West,279,0.0,0.0,85,0.00,,,0.00,0.0,meteohub,2013-10-27 03:32:00,
2013-10-26 22:37:00,31.5,27.7,30.11,West,279,0.0,0.0,86,0.00,,,0.00,0.0,meteohub,2013-10-27 03:37:00,
2013-10-26 22:42:00,31.1,27.3,30.10,West,279,0.0,0.0,86,0.00,,,0.00,0.0,meteohub,2013-10-27 03:42:00,
2013-10-26 22:47:00,31.1,27.1,30.10,West,279,0.0,0.0,85,0.00,,,0.00,0.0,meteohub,2013-10-27 03:47:00,
2013-10-26 22:52:00,31.1,27.3,30.09,West,279,0.0,0.0,86,0.00,,,0.00,0.0,meteohub,2013-10-27 03:52:00,
2013-10-26 22:57:00,31.3,27.3,30.09,West,279,0.0,0.0,85,0.00,,,0.00,0.0,meteohub,2013-10-27 03:57:00,
2013-10-26 23:01:00,31.5,27.1,30.09,West,279,0.0,1.0,84,0.00,,,0.00,0.0,meteohub,2013-10-27 04:01:00,
2013-10-26 23:02:00,31.5,27.1,30.09,West,279,0.0,1.0,84,0.00,,,0.00,0.0,meteohub,2013-10-27 04:02:00,
2013-10-26 23:07:00,31.5,27.5,30.09,West,279,0.0,1.0,85,0.00,,,0.00,0.0,meteohub,2013-10-27 04:07:00,
2013-10-26 23:12:00,31.5,27.1,30.09,West,279,0.0,0.0,84,0.00,,,0.00,0.0,meteohub,2013-10-27 04:12:00,
2013-10-26 23:17:00,31.6,27.7,30.09,West,279,0.0,0.0,85,0.00,,,0.00,0.0,meteohub,2013-10-27 04:17:00,
2013-10-26 23:22:00,31.5,27.1,30.09,West,279,0.0,0.0,84,0.00,,,0.00,0.0,meteohub,2013-10-27 04:22:00,
2013-10-26 23:27:00,31.3,27.0,30.09,West,279,0.0,0.0,84,0.00,,,0.00,0.0,meteohub,2013-10-27 04:27:00,
2013-10-26 23:32:00,31.1,27.1,30.09,West,279,0.0,0.0,85,0.00,,,0.00,0.0,meteohub,2013-10-27 04:32:00,
2013-10-26 23:37:00,30.9,26.6,30.08,West,279,0.0,0.0,84,0.00,,,0.00,0.0,meteohub,2013-10-27 04:37:00,
2013-10-26 23:42:00,30.9,26.6,30.08,West,279,0.0,0.0,84,0.00,,,0.00,0.0,meteohub,2013-10-27 04:42:00,
2013-10-26 23:47:00,30.9,26.6,30.08,West,279,0.0,0.0,84,0.00,,,0.00,0.0,meteohub,2013-10-27 04:47:00,
2013-10-26 23:52:00,30.7,26.8,30.08,West,279,0.0,0.0,85,0.00,,,0.00,0.0,meteohub,2013-10-27 04:52:00,
2013-10-26 23:57:00,30.7,26.8,30.08,West,279,0.0,0.0,85,0.00,,,0.00,0.0,meteohub,2013-10-27 04:57:00,